Time;durP1;ratioP1;P1;durP2;ratioP2;P2;SDS_P1;SDS_P2;PMS_P1;PMS_P2;Temp;Humidity;BMP_temperature;BMP_pressure;BME280_temperature;BME280_humidity;BME280_pressure;Samples;Min_cycle;Max_cycle;Signal;HPM_P1;HPM_P2
2024/02/10 00:01:24;;;;;;;23.18;13.53;;;;;;;1.31;100.00;98376.03;1703719;83;27604;-44
2024/02/10 00:03:51;;;;;;;25.90;14.63;;;;;;;1.33;100.00;98374.41;1703799;84;26002;-42
2024/02/10 00:06:18;;;;;;;28.02;14.80;;;;;;;1.34;100.00;98372.01;1703865;84;25537;-42
2024/02/10 00:08:45;;;;;;;25.77;14.53;;;;;;;1.35;100.00;98373.05;1703905;84;26397;-42
2024/02/10 00:11:13;;;;;;;28.85;15.20;;;;;;;1.36;100.00;98374.61;1704012;84;25375;-42
2024/02/10 00:13:42;;;;;;;28.50;16.27;;;;;;;1.35;100.00;98365.05;1703843;84;27208;-42
2024/02/10 00:16:11;;;;;;;27.32;15.23;;;;;;;1.36;100.00;98362.62;1703821;84;25607;-41
2024/02/10 00:18:40;;;;;;;26.65;15.80;;;;;;;1.38;100.00;98364.99;1703907;84;25411;-42
2024/02/10 00:21:08;;;;;;;26.82;15.03;;;;;;;1.38;100.00;98369.80;1701974;83;26623;-42
2024/02/10 00:23:38;;;;;;;27.60;15.32;;;;;;;1.39;100.00;98373.24;1695089;84;25408;-42
2024/02/10 00:26:05;;;;;;;26.48;15.00;;;;;;;1.39;100.00;98375.36;1695259;84;27327;-42
2024/02/10 00:28:35;;;;;;;26.10;15.43;;;;;;;1.39;100.00;98374.02;1694994;84;25784;-41
2024/02/10 00:31:04;;;;;;;28.12;15.50;;;;;;;1.40;100.00;98369.51;1694686;84;25617;-42
2024/02/10 00:33:30;;;;;;;25.67;14.30;;;;;;;1.41;100.00;98371.85;1695272;84;25789;-40
2024/02/10 00:35:58;;;;;;;27.75;16.37;;;;;;;1.41;100.00;98377.17;1695114;84;25397;-41
2024/02/10 00:38:24;;;;;;;28.92;14.40;;;;;;;1.39;100.00;98374.02;1695045;84;27918;-41
2024/02/10 00:40:52;;;;;;;27.10;15.68;;;;;;;1.38;100.00;98372.46;1694914;84;25629;-41
2024/02/10 00:43:19;;;;;;;30.88;15.32;;;;;;;1.42;100.00;98373.99;1695066;84;25520;-41
2024/02/10 00:45:47;;;;;;;28.85;15.43;;;;;;;1.43;100.00;98379.55;1695027;84;26323;-41
2024/02/10 00:48:13;;;;;;;31.30;15.98;;;;;;;1.45;100.00;98378.73;1695144;84;25438;-41
2024/02/10 00:50:42;;;;;;;26.15;15.00;;;;;;;1.45;100.00;98379.52;1695061;84;27457;-40
2024/02/10 00:53:08;;;;;;;28.67;15.93;;;;;;;1.47;100.00;98380.01;1695109;84;25573;-41
2024/02/10 00:55:36;;;;;;;30.05;16.23;;;;;;;1.50;100.00;98379.97;1695056;84;25542;-42
2024/02/10 00:58:06;;;;;;;26.37;14.95;;;;;;;1.51;100.00;98370.09;1695016;84;25952;-41
2024/02/10 01:00:32;;;;;;;29.85;16.17;;;;;;;1.52;100.00;98366.36;1695198;84;25639;-41
2024/02/10 01:02:58;;;;;;;28.20;16.65;;;;;;;1.51;100.00;98365.55;1695047;84;27696;-42
2024/02/10 01:05:26;;;;;;;28.40;16.20;;;;;;;1.52;100.00;98362.36;1694944;84;25744;-42
2024/02/10 01:07:56;;;;;;;28.23;16.30;;;;;;;1.53;100.00;98364.70;1695034;84;25608;-44
2024/02/10 01:10:22;;;;;;;32.25;17.37;;;;;;;1.54;100.00;98358.30;1694988;84;26734;-42
2024/02/10 01:12:49;;;;;;;31.80;17.05;;;;;;;1.55;100.00;98361.74;1695044;84;25572;-42
2024/02/10 01:15:16;;;;;;;28.92;16.60;;;;;;;1.56;100.00;98361.45;1695031;84;27661;-42
2024/02/10 01:17:46;;;;;;;32.67;17.57;;;;;;;1.58;100.00;98355.28;1695045;84;25455;-41
2024/02/10 01:20:16;;;;;;;32.33;17.95;;;;;;;1.59;100.00;98350.20;1694986;84;25623;-42
2024/02/10 01:22:45;;;;;;;31.68;17.60;;;;;;;1.58;100.00;98350.50;1701367;84;26579;-42
2024/02/10 01:25:11;;;;;;;31.37;18.05;;;;;;;1.57;100.00;98343.05;1703865;84;25482;-45
2024/02/10 01:27:37;;;;;;;32.30;17.35;;;;;;;1.58;100.00;98338.50;1703834;84;27758;-40
2024/02/10 01:30:07;;;;;;;31.70;17.77;;;;;;;1.58;100.00;98340.62;1703752;83;25461;-40
2024/02/10 01:32:34;;;;;;;31.23;17.85;;;;;;;1.59;100.00;98336.09;1703858;84;25493;-42
2024/02/10 01:35:03;;;;;;;32.85;18.37;;;;;;;1.60;100.00;98337.66;1703795;84;25783;-41
2024/02/10 01:37:32;;;;;;;34.95;17.87;;;;;;;1.60;100.00;98335.80;1703868;84;25359;-42
2024/02/10 01:39:58;;;;;;;33.85;18.80;;;;;;;1.60;100.00;98331.80;1703810;83;27652;-42
2024/02/10 01:42:38;;;;;;;35.90;19.37;;;;;;;1.62;100.00;98334.95;1703716;83;25454;-40
2024/02/10 01:45:14;;;;;;;32.60;17.87;;;;;;;1.63;100.00;98327.74;1703846;83;25453;-41
2024/02/10 01:47:44;;;;;;;32.98;17.85;;;;;;;1.63;100.00;98333.85;1703821;84;25482;-41
2024/02/10 01:50:13;;;;;;;35.58;17.67;;;;;;;1.63;100.00;98317.86;1703869;84;25450;-42
2024/02/10 01:52:41;;;;;;;35.45;20.57;;;;;;;1.66;100.00;98318.61;1703923;84;27257;-42
2024/02/10 01:55:10;;;;;;;39.00;20.97;;;;;;;1.67;100.00;98321.53;1703966;84;25395;-42
2024/02/10 01:57:39;;;;;;;36.95;19.55;;;;;;;1.66;100.00;98314.61;1703922;83;25449;-42
2024/02/10 02:00:13;;;;;;;35.75;19.17;;;;;;;1.67;100.00;98316.75;1703890;83;25576;-41
2024/02/10 02:02:36;;;;;;;38.35;19.17;;;;;;;1.68;100.00;98316.98;1703060;84;25459;-42
2024/02/10 02:05:06;;;;;;;35.33;20.60;;;;;;;1.67;100.00;98316.75;1703805;84;27165;-41
2024/02/10 02:07:34;;;;;;;34.27;19.80;;;;;;;1.66;100.00;98320.49;1703844;84;25636;-42
2024/02/10 02:10:03;;;;;;;36.03;18.52;;;;;;;1.66;100.00;98324.48;1703785;83;25485;-42
2024/02/10 02:12:32;;;;;;;36.70;19.05;;;;;;;1.67;100.00;98331.41;1703795;84;25604;-42
2024/02/10 02:14:58;;;;;;;35.13;19.10;;;;;;;1.66;100.00;98333.81;1703809;84;25469;-41
2024/02/10 02:17:26;;;;;;;36.53;19.73;;;;;;;1.66;100.00;98355.92;1703823;83;28184;-41
2024/02/10 02:19:53;;;;;;;37.23;19.77;;;;;;;1.64;100.00;98355.44;1703580;83;25557;-40
2024/02/10 02:22:21;;;;;;;35.83;20.40;;;;;;;1.67;100.00;98344.73;1700236;83;25648;-42
2024/02/10 02:24:47;;;;;;;39.13;19.90;;;;;;;1.67;100.00;98346.84;1694915;84;25620;-40
2024/02/10 02:27:13;;;;;;;35.55;19.75;;;;;;;1.67;100.00;98343.41;1695087;84;25471;-41
2024/02/10 02:29:41;;;;;;;37.00;19.50;;;;;;;1.68;100.00;98329.75;1695100;84;27673;-44
2024/02/10 02:32:10;;;;;;;38.70;19.90;;;;;;;1.68;100.00;98337.75;1694928;84;26101;-41
2024/02/10 02:34:41;;;;;;;34.33;19.70;;;;;;;1.71;100.00;98339.59;1695150;84;25631;-41
2024/02/10 02:37:06;;;;;;;37.10;19.92;;;;;;;1.73;100.00;98335.53;1695025;84;25594;-41
2024/02/10 02:39:35;;;;;;;36.50;18.92;;;;;;;1.75;100.00;98336.02;1695004;84;25572;-41
2024/02/10 02:42:07;;;;;;;38.53;20.57;;;;;;;1.75;100.00;98336.56;1695077;84;28116;-40
2024/02/10 02:44:34;;;;;;;35.48;19.42;;;;;;;1.74;100.00;98339.78;1694944;84;25955;-42
2024/02/10 02:47:05;;;;;;;37.60;20.17;;;;;;;1.75;100.00;98344.02;1694981;84;25619;-42
2024/02/10 02:49:31;;;;;;;38.70;20.45;;;;;;;1.75;100.00;98349.89;1695069;84;25593;-41
2024/02/10 02:51:57;;;;;;;36.95;20.85;;;;;;;1.75;100.00;98349.89;1695096;84;25405;-41
2024/02/10 02:54:24;;;;;;;40.80;21.07;;;;;;;1.74;100.00;98345.12;1695043;84;27198;-41
2024/02/10 02:56:54;;;;;;;42.20;21.15;;;;;;;1.75;100.00;98354.67;1694982;84;25450;-41
2024/02/10 02:59:20;;;;;;;38.25;20.88;;;;;;;1.73;100.00;98348.86;1695013;84;25410;-40
2024/02/10 03:01:51;;;;;;;37.85;20.05;;;;;;;1.72;100.00;98347.30;1694902;84;25598;-40
2024/02/10 03:04:19;;;;;;;42.60;22.25;;;;;;;1.73;100.00;98349.41;1695077;84;25390;-41
2024/02/10 03:06:50;;;;;;;44.40;22.55;;;;;;;1.73;100.00;98350.19;1694985;84;27230;-41
2024/02/10 03:09:17;;;;;;;42.10;19.98;;;;;;;1.72;100.00;98349.96;1694933;84;25542;-43
2024/02/10 03:11:45;;;;;;;40.17;21.27;;;;;;;1.74;100.00;98350.97;1695038;84;25409;-42
2024/02/10 03:14:12;;;;;;;40.58;21.73;;;;;;;1.75;100.00;98350.67;1694951;84;25941;-41
2024/02/10 03:16:38;;;;;;;42.75;21.93;;;;;;;1.75;100.00;98341.34;1694977;84;25586;-42
2024/02/10 03:19:08;;;;;;;48.45;22.65;;;;;;;1.75;100.00;98341.90;1694943;84;27656;-41
2024/02/10 03:21:36;;;;;;;41.42;22.17;;;;;;;1.75;100.00;98340.56;1694849;84;25552;-40
2024/02/10 03:24:06;;;;;;;40.67;21.70;;;;;;;1.75;100.00;98340.02;1695022;83;25389;-41
2024/02/10 03:26:37;;;;;;;42.62;23.45;;;;;;;1.76;100.00;98340.83;1695072;84;25986;-43
2024/02/10 03:29:06;;;;;;;41.80;22.30;;;;;;;1.74;100.00;98345.12;1695055;84;25471;-41
2024/02/10 03:31:33;;;;;;;45.38;22.70;;;;;;;1.75;100.00;98350.67;1695115;84;27668;-40
2024/02/10 03:34:02;;;;;;;45.35;21.97;;;;;;;1.76;100.00;98358.93;1694870;84;25557;-41
2024/02/10 03:36:30;;;;;;;44.30;23.70;;;;;;;1.77;100.00;98357.86;1669731;84;30050;-42
2024/02/10 03:39:07;;;;;;;43.78;22.30;;;;;;;1.78;100.00;98359.42;1694926;84;25623;-43
2024/02/10 03:41:31;;;;;;;43.50;22.40;;;;;;;1.79;100.00;98366.89;1694022;84;25561;-41
2024/02/10 03:43:57;;;;;;;42.58;21.37;;;;;;;1.78;100.00;98360.75;1695092;84;27705;-42
2024/02/10 03:46:30;;;;;;;47.43;22.95;;;;;;;1.80;100.00;98360.45;1695116;84;25615;-41
2024/02/10 03:49:00;;;;;;;46.48;23.98;;;;;;;1.80;100.00;98361.78;1695139;84;25447;-42
2024/02/10 03:51:31;;;;;;;46.48;23.40;;;;;;;1.80;100.00;98361.78;1695073;84;26350;-41
2024/02/10 03:53:58;;;;;;;43.75;22.42;;;;;;;1.80;100.00;98360.45;1695164;84;25650;-41
2024/02/10 03:56:26;;;;;;;49.45;23.18;;;;;;;1.80;100.00;98362.57;1695072;84;27779;-42
2024/02/10 03:58:54;;;;;;;49.67;23.83;;;;;;;1.81;100.00;98362.83;1695024;84;25661;-41
2024/02/10 04:01:20;;;;;;;49.27;24.37;;;;;;;1.81;100.00;98369.49;1695056;84;25580;-40
2024/02/10 04:03:46;;;;;;;43.92;22.42;;;;;;;1.81;100.00;98370.82;1695048;84;25597;-42
2024/02/10 04:06:18;;;;;;;48.58;22.77;;;;;;;1.83;100.00;98375.86;1695122;84;25460;-41
2024/02/10 04:08:47;;;;;;;46.95;22.65;;;;;;;1.84;100.00;98372.90;1695140;84;27306;-41
2024/02/10 04:11:19;;;;;;;45.75;22.77;;;;;;;1.86;100.00;98370.72;1694998;84;25601;-41
2024/02/10 04:13:47;;;;;;;48.00;23.60;;;;;;;1.84;100.00;98370.78;1695131;84;25478;-45
2024/02/10 04:16:14;;;;;;;47.25;23.25;;;;;;;1.85;100.00;98376.34;1694988;84;25677;-43
2024/02/10 04:18:43;;;;;;;47.48;24.77;;;;;;;1.86;100.00;98380.05;1695097;84;25591;-43
2024/02/10 04:21:13;;;;;;;48.13;23.50;;;;;;;1.89;100.00;98369.87;1695022;84;28317;-40
2024/02/10 04:23:39;;;;;;;51.28;24.05;;;;;;;1.90;100.00;98374.91;1700594;84;25428;-42
2024/02/10 04:26:07;;;;;;;50.00;23.60;;;;;;;1.92;100.00;98372.73;1703972;84;25432;-40
2024/02/10 04:28:35;;;;;;;43.25;22.90;;;;;;;1.92;100.00;98375.39;1703824;84;26655;-41
2024/02/10 04:31:05;;;;;;;48.95;24.75;;;;;;;1.92;100.00;98373.28;1703865;84;25462;-42
2024/02/10 04:33:31;;;;;;;51.10;23.40;;;;;;;1.92;100.00;98371.95;1703931;84;27436;-42
2024/02/10 04:35:58;;;;;;;50.80;25.02;;;;;;;1.93;100.00;98373.54;1703751;84;26006;-42
2024/02/10 04:38:26;;;;;;;50.17;24.65;;;;;;;1.95;100.00;98370.80;1703841;84;25667;-40
2024/02/10 04:40:52;;;;;;;48.75;23.02;;;;;;;1.95;100.00;98371.36;1703810;83;25940;-41
2024/02/10 04:43:19;;;;;;;46.58;24.67;;;;;;;1.96;100.00;98374.25;1703887;84;25390;-42
2024/02/10 04:45:48;;;;;;;54.75;24.80;;;;;;;2.00;100.00;98377.92;1703830;83;27691;-42
2024/02/10 04:48:19;;;;;;;55.78;25.37;;;;;;;2.01;100.00;98378.14;1703747;84;25560;-42
2024/02/10 04:50:48;;;;;;;50.25;24.43;;;;;;;2.00;100.00;98373.91;1703885;84;25565;-42
2024/02/10 04:53:16;;;;;;;52.45;25.57;;;;;;;2.00;100.00;98368.58;1703824;84;26495;-40
2024/02/10 04:55:44;;;;;;;56.53;26.02;;;;;;;2.02;100.00;98365.06;1703879;83;25640;-41
2024/02/10 04:58:12;;;;;;;55.20;26.23;;;;;;;2.01;100.00;98360.81;1703813;84;28319;-42
2024/02/10 05:00:38;;;;;;;54.58;25.00;;;;;;;1.99;100.00;98360.33;1703775;83;25598;-41
2024/02/10 05:03:05;;;;;;;53.30;24.77;;;;;;;1.98;100.00;98352.88;1703826;84;25447;-41
2024/02/10 05:05:33;;;;;;;50.73;24.98;;;;;;;1.98;100.00;98350.21;1703778;84;25587;-40
2024/02/10 05:07:59;;;;;;;52.35;24.15;;;;;;;1.98;100.00;98349.43;1703877;83;25375;-41
2024/02/10 05:10:26;;;;;;;56.00;25.25;;;;;;;1.98;100.00;98352.09;1703845;84;27744;-41
2024/02/10 05:12:58;;;;;;;50.17;24.25;;;;;;;1.98;100.00;98356.09;1703745;84;25597;-40
2024/02/10 05:15:25;;;;;;;50.23;25.57;;;;;;;1.97;100.00;98357.17;1702808;84;25549;-40
2024/02/10 05:17:54;;;;;;;51.05;25.25;;;;;;;1.97;100.00;98354.51;1703850;84;25625;-42
2024/02/10 05:20:26;;;;;;;60.40;27.13;;;;;;;1.97;100.00;98351.29;1704087;84;25461;-42
2024/02/10 05:22:58;;;;;;;50.65;24.27;;;;;;;1.99;100.00;98356.33;1702215;83;27317;-41
2024/02/10 05:25:34;;;;;;;50.88;25.40;;;;;;;1.99;100.00;98354.99;1695042;84;25623;-41
2024/02/10 05:28:00;;;;;;;51.37;26.52;;;;;;;2.00;100.00;98352.58;1694270;84;25496;-40
2024/02/10 05:30:29;;;;;;;54.60;24.57;;;;;;;2.01;100.00;98356.28;1695008;84;26879;-41
2024/02/10 05:33:02;;;;;;;56.13;25.40;;;;;;;2.02;100.00;98359.18;1695062;84;25564;-42
2024/02/10 05:35:31;;;;;;;49.23;25.10;;;;;;;2.03;100.00;98358.10;1695056;84;27347;-41
2024/02/10 05:38:04;;;;;;;52.60;26.57;;;;;;;2.04;100.00;98355.69;1695085;84;25636;-41
2024/02/10 05:40:32;;;;;;;55.20;26.82;;;;;;;2.04;100.00;98354.36;1695071;84;25628;-41
2024/02/10 05:43:04;;;;;;;56.98;26.62;;;;;;;2.02;100.00;98349.84;1694954;84;26372;-42
2024/02/10 05:45:28;;;;;;;52.93;24.98;;;;;;;2.03;100.00;98346.10;1694245;84;25634;-42
2024/02/10 05:47:55;;;;;;;51.35;25.12;;;;;;;2.02;100.00;98345.84;1694988;84;27986;-41
2024/02/10 05:50:24;;;;;;;54.33;27.22;;;;;;;2.01;100.00;98337.62;1694936;84;25612;-42
2024/02/10 05:52:53;;;;;;;51.55;25.52;;;;;;;2.02;100.00;98339.73;1695163;84;25395;-42
2024/02/10 05:55:28;;;;;;;53.60;25.95;;;;;;;2.01;100.00;98338.14;1695109;84;25664;-42
2024/02/10 05:58:04;;;;;;;52.98;26.20;;;;;;;1.99;100.00;98339.80;1695111;84;25561;-41
2024/02/10 06:00:33;;;;;;;56.37;24.80;;;;;;;1.99;100.00;98337.66;1695048;84;27716;-41
2024/02/10 06:03:04;;;;;;;60.20;26.47;;;;;;;1.97;100.00;98336.62;1695179;84;25671;-40
2024/02/10 06:05:30;;;;;;;54.48;26.30;;;;;;;1.98;100.00;98334.77;1695009;84;25402;-45
2024/02/10 06:08:00;;;;;;;57.62;26.75;;;;;;;1.97;100.00;98335.84;1695037;84;26160;-41
2024/02/10 06:10:27;;;;;;;58.65;25.05;;;;;;;1.98;100.00;98345.43;1695066;84;25651;-42
2024/02/10 06:12:55;;;;;;;56.95;26.30;;;;;;;1.99;100.00;98344.33;1694990;84;28037;-41
2024/02/10 06:15:25;;;;;;;52.78;26.35;;;;;;;2.01;100.00;98342.95;1678345;83;25491;-41
2024/02/10 06:17:59;;;;;;;63.58;27.82;;;;;;;2.02;100.00;98344.52;1666984;86;25602;-43
2024/02/10 06:20:28;;;;;;;56.33;27.25;;;;;;;2.03;100.00;98341.33;1666955;86;25528;-42
2024/02/10 06:22:57;;;;;;;54.25;25.60;;;;;;;2.03;100.00;98338.66;1667323;85;25588;-41
2024/02/10 06:25:25;;;;;;;62.85;28.02;;;;;;;2.06;100.00;98339.39;1675562;85;27347;-41
2024/02/10 06:27:56;;;;;;;53.73;25.25;;;;;;;2.05;100.00;98339.14;1675435;85;25577;-43
2024/02/10 06:30:34;;;;;;;54.05;24.90;;;;;;;2.07;100.00;98338.84;1675569;85;25525;-42
2024/02/10 06:32:58;;;;;;;56.48;27.75;;;;;;;2.08;100.00;98337.21;1674908;85;25624;-40
2024/02/10 06:35:27;;;;;;;60.80;26.42;;;;;;;2.10;100.00;98338.25;1675557;85;25561;-42
2024/02/10 06:37:57;;;;;;;53.20;25.75;;;;;;;2.08;100.00;98337.21;1675550;85;28138;-41
2024/02/10 06:40:23;;;;;;;;;;;;;;;2.08;100.00;98340.40;1677884;85;25411;-40
2024/02/10 06:42:51;;;;;;;55.00;25.48;;;;;;;2.10;100.00;98347.03;1675510;85;25542;-41
2024/02/10 06:45:28;;;;;;;57.60;26.73;;;;;;;2.10;100.00;98344.91;1675419;85;25963;-41
2024/02/10 06:47:58;;;;;;;62.45;26.80;;;;;;;2.10;100.00;98340.36;1675509;85;25578;-40
2024/02/10 06:50:26;;;;;;;58.83;27.00;;;;;;;2.11;100.00;98351.28;1675435;85;27704;-41
2024/02/10 06:52:55;;;;;;;64.05;27.62;;;;;;;2.13;100.00;98353.10;1675363;85;25478;-42
2024/02/10 06:55:23;;;;;;;60.20;27.70;;;;;;;2.16;100.00;98345.84;1675675;85;25429;-40
2024/02/10 06:57:52;;;;;;;59.30;28.17;;;;;;;2.19;100.00;98343.88;1675572;85;27787;-43
2024/02/10 07:00:19;;;;;;;61.28;27.48;;;;;;;2.21;100.00;98351.06;1675553;85;25591;-40
2024/02/10 07:02:48;;;;;;;57.03;28.40;;;;;;;2.22;100.00;98361.18;1675393;85;27427;-42
2024/02/10 07:05:19;;;;;;;61.68;28.57;;;;;;;2.23;100.00;98362.22;1675516;85;25699;-42
2024/02/10 07:07:48;;;;;;;63.55;28.60;;;;;;;2.22;100.00;98360.63;1675489;85;25466;-40
2024/02/10 07:10:21;;;;;;;;;;;;;;;2.23;100.00;98358.21;1677930;85;25627;-41
2024/02/10 07:12:57;;;;;;;61.25;28.12;;;;;;;2.27;100.00;98361.62;1675645;85;25456;-40
2024/02/10 07:15:25;;;;;;;67.47;29.25;;;;;;;2.26;100.00;98356.03;1674500;85;27370;-43
2024/02/10 07:17:53;;;;;;;61.60;28.60;;;;;;;2.28;100.00;98369.84;1675545;85;25466;-41
2024/02/10 07:20:25;;;;;;;63.17;28.97;;;;;;;2.31;100.00;98368.70;1675848;85;25572;-40
2024/02/10 07:22:59;;;;;;;63.63;26.97;;;;;;;2.32;100.00;98371.63;1675554;85;25599;-41
2024/02/10 07:25:33;;;;;;;61.35;28.85;;;;;;;2.34;100.00;98376.66;1675564;85;25580;-39
2024/02/10 07:28:02;;;;;;;62.30;28.20;;;;;;;2.36;100.00;98377.14;1675612;85;27329;-40
2024/02/10 07:30:33;;;;;;;63.25;28.70;;;;;;;2.37;100.00;98382.18;1675494;85;25805;-42
2024/02/10 07:33:09;;;;;;;68.70;29.12;;;;;;;2.41;100.00;98383.14;1675621;85;25652;-41
2024/02/10 07:35:37;;;;;;;62.98;30.15;;;;;;;2.44;100.00;98387.11;1675601;85;25735;-41
2024/02/10 07:38:05;;;;;;;67.60;29.87;;;;;;;2.46;100.00;98384.92;1675580;85;25558;-41
2024/02/10 07:40:32;;;;;;;70.03;30.87;;;;;;;2.50;100.00;98379.77;1675840;85;27330;-40
2024/02/10 07:42:58;;;;;;;73.72;28.23;;;;;;;2.52;100.00;98378.39;1675536;85;25616;-41
2024/02/10 07:45:24;;;;;;;67.42;29.50;;;;;;;2.54;100.00;98384.20;1675554;85;25631;-40
2024/02/10 07:47:50;;;;;;;71.22;28.77;;;;;;;2.59;100.00;98384.64;1675499;85;25511;-43
2024/02/10 07:50:20;;;;;;;62.90;28.42;;;;;;;2.60;100.00;98383.53;1675521;85;25806;-41
2024/02/10 07:52:48;;;;;;;64.90;27.02;;;;;;;2.64;100.00;98388.52;1675638;85;27334;-41
2024/02/10 07:55:18;;;;;;;66.97;28.75;;;;;;;2.65;100.00;98387.41;1675491;85;25628;-42
2024/02/10 07:57:45;;;;;;;70.35;28.45;;;;;;;2.67;100.00;98388.45;1675617;85;25455;-42
2024/02/10 08:00:18;;;;;;;68.50;28.57;;;;;;;2.72;100.00;98391.00;1675494;85;26581;-41
2024/02/10 08:02:45;;;;;;;68.60;28.42;;;;;;;2.76;100.00;98390.10;1675582;85;25648;-42
2024/02/10 08:05:20;;;;;;;62.30;28.05;;;;;;;2.79;100.00;98397.51;1675557;85;27351;-42
2024/02/10 08:07:42;;;;;;;67.30;27.02;;;;;;;2.79;100.00;98400.18;1675483;85;25460;-40
2024/02/10 08:10:10;;;;;;;62.55;28.02;;;;;;;2.83;100.00;98405.70;1675554;85;25699;-40
2024/02/10 08:12:40;;;;;;;68.92;30.10;;;;;;;2.87;100.00;98406.66;1675665;85;25780;-41
2024/02/10 08:15:10;;;;;;;62.90;30.08;;;;;;;2.92;100.00;98399.86;1675619;85;25654;-40
2024/02/10 08:17:38;;;;;;;61.00;26.95;;;;;;;2.97;100.00;98402.41;1675576;85;28024;-42
2024/02/10 08:20:10;;;;;;;64.77;27.87;;;;;;;2.99;100.00;98398.88;1675448;85;25443;-41
2024/02/10 08:22:38;;;;;;;62.13;27.65;;;;;;;3.05;100.00;98398.75;1675538;85;25573;-40
2024/02/10 08:25:09;;;;;;;70.62;28.75;;;;;;;3.06;100.00;98395.78;1675408;85;26233;-40
2024/02/10 08:27:39;;;;;;;69.82;30.75;;;;;;;3.09;100.00;98393.84;1675603;85;25461;-41
2024/02/10 08:30:16;;;;;;;62.03;29.55;;;;;;;3.08;100.00;98393.61;1675642;85;27335;-41
2024/02/10 08:32:41;;;;;;;62.55;29.00;;;;;;;3.09;100.00;98397.06;1675478;85;25634;-42
2024/02/10 08:35:12;;;;;;;66.77;29.55;;;;;;;3.10;100.00;98395.42;1675546;85;25462;-42
2024/02/10 08:37:39;;;;;;;70.32;29.82;;;;;;;3.10;100.00;98387.41;1675644;85;25572;-43
2024/02/10 08:40:10;;;;;;;67.03;29.87;;;;;;;3.11;100.00;98386.86;1675656;85;25450;-43
2024/02/10 08:42:36;;;;;;;63.68;28.05;;;;;;;3.13;100.00;98377.98;1675551;85;27495;-40
2024/02/10 08:45:09;;;;;;;65.08;28.47;;;;;;;3.18;100.00;98381.86;1675483;85;25504;-42
2024/02/10 08:47:35;;;;;;;64.65;30.50;;;;;;;3.20;100.00;98379.66;1675590;85;25661;-41
2024/02/10 08:50:01;;;;;;;70.67;30.35;;;;;;;3.24;100.00;98384.66;1675510;85;26061;-40
2024/02/10 08:52:30;;;;;;;72.37;31.45;;;;;;;3.24;100.00;98376.64;1675538;85;25423;-42
2024/02/10 08:54:59;;;;;;;98.90;50.20;;;;;;;3.31;100.00;98382.33;1675625;85;27689;-43
2024/02/10 08:57:26;;;;;;;78.15;33.63;;;;;;;3.38;100.00;98375.77;1675599;85;25661;-42
2024/02/10 08:59:53;;;;;;;66.17;30.20;;;;;;;3.45;100.00;98380.89;1675527;85;25608;-43
2024/02/10 09:02:22;;;;;;;68.78;30.65;;;;;;;3.51;100.00;98371.65;1675517;85;25951;-42
2024/02/10 09:04:53;;;;;;;72.03;31.02;;;;;;;3.56;100.00;98374.74;1675544;85;25409;-41
2024/02/10 09:07:19;;;;;;;68.97;29.95;;;;;;;3.60;100.00;98376.24;1675565;85;28009;-41
2024/02/10 09:09:46;;;;;;;72.62;29.25;;;;;;;3.64;100.00;98372.63;1675439;85;25455;-42
2024/02/10 09:12:12;;;;;;;70.80;30.85;;;;;;;3.68;100.00;98373.59;1675496;85;25534;-43
2024/02/10 09:14:39;;;;;;;74.85;31.65;;;;;;;3.74;100.00;98374.23;1675486;85;25616;-41
2024/02/10 09:17:05;;;;;;;68.15;30.92;;;;;;;3.80;100.00;98373.53;1675526;85;25642;-40
2024/02/10 09:19:35;;;;;;;70.95;31.07;;;;;;;3.87;100.00;98365.86;1675624;85;27681;-41
2024/02/10 09:22:05;;;;;;;73.78;32.60;;;;;;;3.97;100.00;98377.61;1675414;85;25431;-42
2024/02/10 09:24:31;;;;;;;75.70;32.90;;;;;;;4.07;100.00;98381.33;1675659;85;25487;-42
2024/02/10 09:26:58;;;;;;;74.30;32.17;;;;;;;4.17;100.00;98378.09;1675514;85;26161;-41
2024/02/10 09:29:26;;;;;;;73.55;32.50;;;;;;;4.26;100.00;98384.27;1675796;85;25616;-42
2024/02/10 09:31:56;;;;;;;75.32;33.80;;;;;;;4.32;100.00;98387.01;1675477;85;27655;-41
2024/02/10 09:34:24;;;;;;;68.97;31.42;;;;;;;4.33;100.00;98392.61;1675435;85;26240;-41
2024/02/10 09:36:50;;;;;;;71.90;32.73;;;;;;;4.37;100.00;98392.77;1675498;85;25605;-42
2024/02/10 09:39:17;;;;;;;77.10;34.08;;;;;;;4.40;100.00;98398.28;1675433;85;25970;-41
2024/02/10 09:41:45;;;;;;;77.67;34.05;;;;;;;4.55;100.00;98395.70;1675567;85;25568;-43
2024/02/10 09:44:15;;;;;;;70.42;32.85;;;;;;;4.67;100.00;98407.12;1675523;85;27763;-41
2024/02/10 09:46:44;;;;;;;78.55;35.30;;;;;;;4.77;100.00;98420.75;1675418;85;25973;-43
2024/02/10 09:49:13;;;;;;;482.80;374.30;;;;;;;4.82;100.00;98428.06;1675750;85;25463;-43
2024/02/10 09:51:44;;;;;;;101.02;54.48;;;;;;;4.88;100.00;98431.36;1675614;85;25736;-44
2024/02/10 09:54:13;;;;;;;82.17;35.45;;;;;;;4.90;100.00;98430.48;1675016;85;25716;-43
2024/02/10 09:56:43;;;;;;;76.62;35.40;;;;;;;4.90;100.00;98434.51;1674648;85;27355;-41
2024/02/10 09:59:24;;;;;;;72.60;32.83;;;;;;;4.94;100.00;98431.45;1675409;85;25692;-43
2024/02/10 10:01:53;;;;;;;77.27;34.43;;;;;;;4.99;100.00;98427.27;1675473;85;25684;-42
2024/02/10 10:04:21;;;;;;;81.35;36.00;;;;;;;5.03;100.00;98435.45;1675402;85;25620;-43
2024/02/10 10:06:51;;;;;;;;;;;;;;;5.09;100.00;98438.22;1678039;85;25435;-42
2024/02/10 10:09:21;;;;;;;78.22;35.80;;;;;;;5.10;100.00;98437.66;1675440;85;27359;-44
2024/02/10 10:11:51;;;;;;;78.83;33.98;;;;;;;5.10;100.00;98439.00;1675448;85;25545;-44
2024/02/10 10:14:19;;;;;;;72.65;35.80;;;;;;;5.15;100.00;98439.61;1675612;85;25625;-42
2024/02/10 10:17:02;;;;;;;84.05;35.03;;;;;;;5.16;100.00;98441.20;1675685;85;25616;-42
2024/02/10 10:19:29;;;;;;;71.05;34.90;;;;;;;5.16;100.00;98434.50;1675596;85;25464;-43
2024/02/10 10:21:58;;;;;;;76.35;33.15;;;;;;;5.22;100.00;98435.88;1675599;85;27321;-43
2024/02/10 10:24:29;;;;;;;90.75;40.63;;;;;;;5.27;100.00;98440.86;1675143;85;25859;-42
2024/02/10 10:27:02;;;;;;;82.40;36.93;;;;;;;5.31;100.00;98438.58;1666997;86;25577;-43
2024/02/10 10:29:33;;;;;;;82.92;38.08;;;;;;;5.35;100.00;98438.72;1666958;86;25674;-42
2024/02/10 10:32:02;;;;;;;74.65;35.50;;;;;;;5.35;100.00;98431.45;1667001;85;25700;-42
2024/02/10 10:34:34;;;;;;;71.67;33.95;;;;;;;5.41;100.00;98443.59;1667089;86;27762;-43
2024/02/10 10:37:02;;;;;;;73.02;34.88;;;;;;;5.40;100.00;98440.67;1666954;86;25740;-44
2024/02/10 10:39:31;;;;;;;73.50;35.35;;;;;;;5.41;100.00;98438.77;1666965;86;25613;-42
2024/02/10 10:42:00;;;;;;;72.22;33.88;;;;;;;5.42;100.00;98433.09;1667079;86;25622;-43
2024/02/10 10:44:30;;;;;;;105.25;50.55;;;;;;;5.46;100.00;98431.11;1667151;85;25681;-43
2024/02/10 10:47:00;;;;;;;76.62;36.23;;;;;;;5.50;100.00;98432.84;1666924;86;27692;-42
2024/02/10 10:49:26;;;;;;;80.07;37.40;;;;;;;5.52;100.00;98437.33;1641855;86;25569;-42
2024/02/10 10:52:01;;;;;;;80.65;38.35;;;;;;;5.55;100.00;98435.34;1667001;85;25576;-43
2024/02/10 10:54:33;;;;;;;70.90;35.33;;;;;;;5.58;100.00;98436.05;1666997;85;25618;-43
2024/02/10 10:57:15;;;;;;;74.65;36.75;;;;;;;5.59;100.00;98435.49;1667043;86;25157;-41
2024/02/10 11:00:07;;;;;;;69.45;31.90;;;;;;;5.66;100.00;98429.63;1666899;85;27414;-40
2024/02/10 11:02:37;;;;;;;72.00;34.73;;;;;;;5.70;100.00;98427.30;1666865;86;25630;-41
2024/02/10 11:05:08;;;;;;;;;;;;;;;5.69;100.00;98434.36;1669457;86;25410;-42
2024/02/10 11:07:38;;;;;;;69.70;33.13;;;;;;;5.75;100.00;98437.08;1666693;86;25758;-41
2024/02/10 11:10:09;;;;;;;74.17;34.20;;;;;;;5.76;100.00;98432.73;1667051;86;25675;-43
2024/02/10 11:12:36;;;;;;;85.90;41.53;;;;;;;5.78;100.00;98435.10;1667008;86;27337;-42
2024/02/10 11:15:08;;;;;;;78.35;38.85;;;;;;;5.80;100.00;98436.90;1666909;86;25564;-41
2024/02/10 11:17:36;;;;;;;80.45;37.53;;;;;;;5.77;100.00;98434.86;1639430;86;25713;-42
2024/02/10 11:20:11;;;;;;;79.27;37.33;;;;;;;5.74;100.00;98441.67;1666903;86;26090;-42
2024/02/10 11:22:42;;;;;;;93.05;45.95;;;;;;;5.74;100.00;98444.35;1667045;85;25403;-41
2024/02/10 11:25:12;;;;;;;78.20;36.42;;;;;;;5.76;100.00;98442.69;1668473;85;27193;-41
2024/02/10 11:27:42;;;;;;;76.80;39.05;;;;;;;5.82;100.00;98444.63;1675484;85;25585;-41